Terminal Aerodrome Forecast
Issued by NWS Lake Charles, LA

Home | Current Version | Previous Version | Text Only | Print | Product List | Glossary On
Versions: 1 2 3 4 5 6 7 8 9 10 11 12 13 14 15 16 17 18
000
FTUS44 KLCH 230000 RRA
TAFAEX
TAF
KAEX 230006Z 2300/2324 02010KT P6SM SKC
     FM230200 03004KT P6SM SKC
     FM231400 05009KT P6SM SKC=

USA.gov is the U.S. government's official web portal to all federal, state and local government web resources and services.